createdAt,value
2022-11-25T00:00:01.751Z,97887.00
2022-11-25T00:00:11.790Z,97885.00
2022-11-25T00:00:21.804Z,97887.00
2022-11-25T00:00:31.810Z,97887.00
2022-11-25T00:00:41.819Z,97885.00
2022-11-25T00:00:51.830Z,97885.00
2022-11-25T00:01:01.845Z,97885.00
2022-11-25T00:01:11.847Z,97883.00
2022-11-25T00:01:21.861Z,97883.00
2022-11-25T00:01:31.881Z,97883.00
2022-11-25T00:01:41.942Z,97878.00
2022-11-25T00:01:52.037Z,97883.00
2022-11-25T00:02:02.086Z,97883.00
2022-11-25T00:02:12.198Z,97881.00
2022-11-25T00:02:22.328Z,97883.00
2022-11-25T00:02:32.428Z,97885.00
2022-11-25T00:02:42.814Z,97885.00
2022-11-25T00:02:52.984Z,97879.00
2022-11-25T00:03:02.888Z,97879.00
2022-11-25T00:03:13.230Z,97885.00
2022-11-25T00:03:23.300Z,97881.00
2022-11-25T00:03:33.467Z,97885.00
2022-11-25T00:03:43.717Z,97883.00
2022-11-25T00:03:53.723Z,97883.00
2022-11-25T00:04:03.737Z,97883.00
2022-11-25T00:04:13.733Z,97883.00
2022-11-25T00:04:23.740Z,97883.00
2022-11-25T00:04:34.132Z,97883.00
2022-11-25T00:04:43.767Z,97878.00
2022-11-25T00:04:53.788Z,97883.00
2022-11-25T00:05:03.795Z,97878.00
2022-11-25T00:05:13.798Z,97883.00
2022-11-25T00:05:23.808Z,97883.00
2022-11-25T00:05:33.835Z,97881.00
2022-11-25T00:05:43.837Z,97876.00
2022-11-25T00:05:53.840Z,97881.00
2022-11-25T00:06:03.970Z,97879.00
2022-11-25T00:06:13.982Z,97881.00
2022-11-25T00:06:23.991Z,97881.00
2022-11-25T00:06:34.256Z,97881.00
2022-11-25T00:06:44.253Z,97881.00
2022-11-25T00:06:54.258Z,97883.00
2022-11-25T00:07:04.309Z,97881.00
2022-11-25T00:07:14.367Z,97883.00
2022-11-25T00:07:24.453Z,97878.00
2022-11-25T00:07:34.533Z,97878.00
2022-11-25T00:07:44.628Z,97878.00
2022-11-25T00:07:54.736Z,97885.00
2022-11-25T00:08:04.644Z,97879.00
2022-11-25T00:08:14.909Z,97885.00
2022-11-25T00:08:24.911Z,97879.00
2022-11-25T00:08:34.928Z,97885.00
2022-11-25T00:08:45.320Z,97879.00
2022-11-25T00:08:55.340Z,97879.00
2022-11-25T00:09:05.342Z,97879.00
2022-11-25T00:09:15.343Z,97879.00
2022-11-25T00:09:25.537Z,97881.00
2022-11-25T00:09:35.535Z,97879.00
2022-11-25T00:09:45.545Z,97879.00
2022-11-25T00:09:55.560Z,97876.00
2022-11-25T00:10:05.564Z,97879.00
2022-11-25T00:10:15.563Z,97878.00
2022-11-25T00:10:25.828Z,97878.00
2022-11-25T00:10:35.858Z,97881.00
2022-11-25T00:10:45.840Z,97876.00
2022-11-25T00:10:55.840Z,97876.00
2022-11-25T00:11:05.849Z,97878.00
2022-11-25T00:11:15.860Z,97876.00
2022-11-25T00:11:25.875Z,97876.00
2022-11-25T00:11:35.876Z,97876.00
2022-11-25T00:11:45.998Z,97876.00
2022-11-25T00:11:56.002Z,97878.00
2022-11-25T00:12:06.272Z,97878.00
2022-11-25T00:12:16.285Z,97883.00
2022-11-25T00:12:26.361Z,97878.00
2022-11-25T00:12:36.355Z,97879.00
2022-11-25T00:12:46.365Z,97881.00
2022-11-25T00:12:56.366Z,97881.00
2022-11-25T00:13:06.483Z,97881.00
2022-11-25T00:13:16.492Z,97883.00
2022-11-25T00:13:26.510Z,97881.00
2022-11-25T00:13:36.513Z,97883.00
2022-11-25T00:13:46.813Z,97883.00
2022-11-25T00:13:56.782Z,97883.00
2022-11-25T00:14:06.793Z,97883.00
2022-11-25T00:14:16.802Z,97885.00
2022-11-25T00:14:26.820Z,97885.00
2022-11-25T00:14:37.216Z,97885.00
2022-11-25T00:14:46.834Z,97881.00
2022-11-25T00:14:56.845Z,97887.00
2022-11-25T00:15:06.860Z,97885.00
2022-11-25T00:15:16.860Z,97885.00
2022-11-25T00:15:26.874Z,97883.00
2022-11-25T00:15:36.880Z,97881.00
2022-11-25T00:15:46.902Z,97885.00
2022-11-25T00:15:56.902Z,97883.00
2022-11-25T00:16:06.975Z,97881.00
2022-11-25T00:16:17.047Z,97885.00
2022-11-25T00:16:27.152Z,97883.00
2022-11-25T00:16:37.503Z,97885.00
2022-11-25T00:16:48.821Z,97883.00
2022-11-25T00:16:57.587Z,97883.00
2022-11-25T00:17:07.616Z,97887.00
2022-11-25T00:17:17.628Z,97885.00
2022-11-25T00:17:27.629Z,97887.00
2022-11-25T00:17:37.645Z,97885.00
2022-11-25T00:17:47.650Z,97885.00
2022-11-25T00:17:57.771Z,97881.00
2022-11-25T00:18:07.769Z,97883.00
2022-11-25T00:18:18.041Z,97881.00
2022-11-25T00:18:28.051Z,97883.00
2022-11-25T00:18:38.063Z,97881.00
2022-11-25T00:18:48.074Z,97881.00
2022-11-25T00:18:58.094Z,97879.00
2022-11-25T00:19:08.097Z,97878.00
2022-11-25T00:19:18.133Z,97878.00
2022-11-25T00:19:28.136Z,97879.00
2022-11-25T00:19:38.137Z,97876.00
2022-11-25T00:19:48.137Z,97876.00
2022-11-25T00:19:58.154Z,97879.00
2022-11-25T00:20:08.165Z,97878.00
2022-11-25T00:20:18.304Z,97878.00
2022-11-25T00:20:28.317Z,97876.00
2022-11-25T00:20:38.332Z,97878.00
2022-11-25T00:20:48.333Z,97874.00
2022-11-25T00:20:58.451Z,97876.00
2022-11-25T00:21:08.597Z,97879.00
2022-11-25T00:21:18.620Z,97878.00
2022-11-25T00:21:28.649Z,97878.00
2022-11-25T00:21:39.014Z,97878.00
2022-11-25T00:21:49.033Z,97876.00
2022-11-25T00:21:59.167Z,97876.00
2022-11-25T00:22:09.436Z,97878.00
2022-11-25T00:22:19.450Z,97878.00
2022-11-25T00:22:29.453Z,97876.00
2022-11-25T00:22:39.455Z,97878.00
2022-11-25T00:22:49.471Z,97878.00
2022-11-25T00:22:59.465Z,97878.00
2022-11-25T00:23:09.477Z,97878.00
2022-11-25T00:23:19.487Z,97876.00
2022-11-25T00:23:33.229Z,97876.00
2022-11-25T00:23:39.582Z,97876.00
2022-11-25T00:23:49.594Z,97878.00
2022-11-25T00:23:59.731Z,97876.00
2022-11-25T00:24:09.739Z,97876.00
2022-11-25T00:24:19.742Z,97876.00
2022-11-25T00:24:29.758Z,97876.00
2022-11-25T00:24:39.762Z,97874.00
2022-11-25T00:24:50.021Z,97876.00
2022-11-25T00:25:00.145Z,97876.00
2022-11-25T00:25:10.160Z,97876.00
2022-11-25T00:25:20.433Z,97876.00
2022-11-25T00:25:30.436Z,97878.00
2022-11-25T00:25:40.554Z,97876.00
2022-11-25T00:25:50.814Z,97879.00
2022-11-25T00:26:00.945Z,97878.00
2022-11-25T00:26:10.953Z,97878.00
2022-11-25T00:26:21.228Z,97878.00
2022-11-25T00:26:31.218Z,97879.00
2022-11-25T00:26:41.217Z,97878.00
2022-11-25T00:26:51.216Z,97881.00
2022-11-25T00:27:01.230Z,97881.00
2022-11-25T00:27:11.228Z,97879.00
2022-11-25T00:27:21.356Z,97881.00
2022-11-25T00:27:31.365Z,97881.00
2022-11-25T00:27:41.374Z,97883.00
2022-11-25T00:27:51.370Z,97883.00
2022-11-25T00:28:01.628Z,97883.00
2022-11-25T00:28:11.636Z,97887.00
2022-11-25T00:28:21.649Z,97885.00
2022-11-25T00:28:31.660Z,97885.00
2022-11-25T00:28:41.680Z,97883.00
2022-11-25T00:28:51.700Z,97885.00
2022-11-25T00:29:01.680Z,97885.00
2022-11-25T00:29:11.687Z,97887.00
2022-11-25T00:29:21.812Z,97887.00
2022-11-25T00:29:31.819Z,97887.00
2022-11-25T00:29:42.097Z,97889.00
2022-11-25T00:29:52.093Z,97889.00
2022-11-25T00:30:02.228Z,97889.00
2022-11-25T00:30:12.473Z,97891.00
2022-11-25T00:30:22.606Z,97889.00
2022-11-25T00:30:32.618Z,97891.00
2022-11-25T00:30:42.875Z,97891.00
2022-11-25T00:30:52.874Z,97893.00
2022-11-25T00:31:02.997Z,97891.00
2022-11-25T00:31:13.303Z,97893.00
2022-11-25T00:31:23.424Z,97895.00
2022-11-25T00:31:33.317Z,97891.00
2022-11-25T00:31:43.375Z,97893.00
2022-11-25T00:31:53.464Z,97891.00
2022-11-25T00:32:03.543Z,97893.00
2022-11-25T00:32:13.537Z,97891.00
2022-11-25T00:32:23.543Z,97891.00
2022-11-25T00:32:33.551Z,97891.00
2022-11-25T00:32:43.670Z,97891.00
2022-11-25T00:32:53.930Z,97891.00
2022-11-25T00:33:03.933Z,97893.00
2022-11-25T00:33:13.946Z,97889.00
2022-11-25T00:33:23.958Z,97891.00
2022-11-25T00:33:33.964Z,97889.00
2022-11-25T00:33:43.972Z,97893.00
2022-11-25T00:33:53.990Z,97889.00
2022-11-25T00:34:04.004Z,97889.00
2022-11-25T00:34:14.004Z,97887.00
2022-11-25T00:34:24.022Z,97889.00
2022-11-25T00:34:34.402Z,97889.00
2022-11-25T00:34:44.275Z,97889.00
2022-11-25T00:34:54.276Z,97889.00
2022-11-25T00:35:04.399Z,97889.00
2022-11-25T00:35:14.659Z,97889.00
2022-11-25T00:35:24.665Z,97887.00
2022-11-25T00:35:34.678Z,97887.00
2022-11-25T00:35:45.056Z,97889.00
2022-11-25T00:35:55.060Z,97889.00
2022-11-25T00:36:05.184Z,97885.00
2022-11-25T00:36:15.461Z,97887.00
2022-11-25T00:36:25.495Z,97887.00
2022-11-25T00:36:35.505Z,97887.00
2022-11-25T00:36:45.507Z,97887.00
2022-11-25T00:36:55.505Z,97887.00
2022-11-25T00:37:05.629Z,97885.00
2022-11-25T00:37:15.633Z,97889.00
2022-11-25T00:37:25.646Z,97887.00
2022-11-25T00:37:35.642Z,97887.00
2022-11-25T00:37:45.768Z,97887.00
2022-11-25T00:37:55.907Z,97887.00
2022-11-25T00:38:06.031Z,97887.00
2022-11-25T00:38:16.042Z,97889.00
2022-11-25T00:38:26.314Z,97889.00
2022-11-25T00:38:36.316Z,97889.00
2022-11-25T00:38:46.440Z,97889.00
2022-11-25T00:38:56.701Z,97889.00
2022-11-25T00:39:06.717Z,97891.00
2022-11-25T00:39:16.714Z,97891.00
2022-11-25T00:39:26.718Z,97889.00
2022-11-25T00:39:36.726Z,97887.00
2022-11-25T00:39:46.739Z,97891.00
2022-11-25T00:39:56.739Z,97887.00
2022-11-25T00:40:06.751Z,97887.00
2022-11-25T00:40:16.772Z,97889.00
2022-11-25T00:40:26.777Z,97887.00
2022-11-25T00:40:36.788Z,97885.00
2022-11-25T00:40:46.796Z,97891.00
2022-11-25T00:40:56.810Z,97889.00
2022-11-25T00:41:06.812Z,97889.00
2022-11-25T00:41:16.829Z,97885.00
2022-11-25T00:41:26.848Z,97887.00
2022-11-25T00:41:36.852Z,97883.00
2022-11-25T00:41:46.855Z,97885.00
2022-11-25T00:41:56.872Z,97885.00
2022-11-25T00:42:06.875Z,97883.00
2022-11-25T00:42:16.902Z,97883.00
2022-11-25T00:42:26.906Z,97885.00
2022-11-25T00:42:36.906Z,97885.00
2022-11-25T00:42:46.920Z,97887.00
2022-11-25T00:42:56.924Z,97885.00
2022-11-25T00:43:06.948Z,97885.00
2022-11-25T00:43:16.954Z,97885.00
2022-11-25T00:43:26.960Z,97885.00
2022-11-25T00:43:36.982Z,97885.00
2022-11-25T00:43:46.976Z,97885.00
2022-11-25T00:43:57.011Z,97885.00
2022-11-25T00:44:07.010Z,97885.00
2022-11-25T00:44:17.021Z,97885.00
2022-11-25T00:44:27.156Z,97887.00
2022-11-25T00:44:38.472Z,97883.00
2022-11-25T00:44:47.273Z,97883.00
2022-11-25T00:44:57.297Z,97887.00
2022-11-25T00:45:07.309Z,97883.00
2022-11-25T00:45:17.314Z,97887.00
2022-11-25T00:45:27.349Z,97885.00
2022-11-25T00:45:37.428Z,97885.00
2022-11-25T00:45:47.531Z,97883.00
2022-11-25T00:45:57.470Z,97881.00
2022-11-25T00:46:07.554Z,97883.00
2022-11-25T00:46:17.674Z,97885.00
2022-11-25T00:46:27.575Z,97887.00
2022-11-25T00:46:37.586Z,97883.00
2022-11-25T00:46:47.593Z,97881.00
2022-11-25T00:46:57.604Z,97885.00
2022-11-25T00:47:07.602Z,97887.00
2022-11-25T00:47:17.603Z,97887.00
2022-11-25T00:47:27.612Z,97885.00
2022-11-25T00:47:37.610Z,97887.00
2022-11-25T00:47:47.611Z,97887.00
2022-11-25T00:47:57.625Z,97889.00
2022-11-25T00:48:07.637Z,97887.00
2022-11-25T00:48:17.645Z,97887.00
2022-11-25T00:48:27.656Z,97889.00
2022-11-25T00:48:37.683Z,97887.00
2022-11-25T00:48:47.691Z,97889.00
2022-11-25T00:48:57.703Z,97885.00
2022-11-25T00:49:07.729Z,97889.00
2022-11-25T00:49:17.719Z,97887.00
2022-11-25T00:49:27.853Z,97889.00
2022-11-25T00:49:38.111Z,97885.00
2022-11-25T00:49:48.238Z,97889.00
2022-11-25T00:49:58.261Z,97889.00
2022-11-25T00:50:08.515Z,97889.00
2022-11-25T00:50:18.518Z,97889.00
2022-11-25T00:50:28.643Z,97885.00
2022-11-25T00:50:38.904Z,97887.00
2022-11-25T00:50:49.034Z,97883.00
2022-11-25T00:50:59.058Z,97887.00
2022-11-25T00:51:09.323Z,97885.00
2022-11-25T00:51:19.323Z,97883.00
2022-11-25T00:51:29.443Z,97881.00
2022-11-25T00:51:39.701Z,97883.00
2022-11-25T00:51:49.832Z,97883.00
2022-11-25T00:51:59.840Z,97881.00
2022-11-25T00:52:10.093Z,97883.00
2022-11-25T00:52:20.092Z,97883.00
2022-11-25T00:52:30.105Z,97881.00
2022-11-25T00:52:40.115Z,97883.00
2022-11-25T00:52:50.130Z,97881.00
2022-11-25T00:53:00.134Z,97879.00
2022-11-25T00:53:10.150Z,97881.00
2022-11-25T00:53:20.156Z,97885.00
2022-11-25T00:53:30.168Z,97883.00
2022-11-25T00:53:40.166Z,97885.00
2022-11-25T00:53:54.613Z,97885.00
2022-11-25T00:54:00.557Z,97883.00
2022-11-25T00:54:10.559Z,97883.00
2022-11-25T00:54:20.571Z,97883.00
2022-11-25T00:54:30.569Z,97883.00
2022-11-25T00:54:40.568Z,97883.00
2022-11-25T00:54:50.698Z,97883.00
2022-11-25T00:55:00.705Z,97883.00
2022-11-25T00:55:10.703Z,97878.00
2022-11-25T00:55:20.705Z,97881.00
2022-11-25T00:55:30.721Z,97879.00
2022-11-25T00:55:40.730Z,97881.00
2022-11-25T00:55:50.739Z,97879.00
2022-11-25T00:56:00.747Z,97878.00
2022-11-25T00:56:10.758Z,97878.00
2022-11-25T00:56:20.772Z,97876.00
2022-11-25T00:56:30.776Z,97874.00
2022-11-25T00:56:40.788Z,97876.00
2022-11-25T00:56:50.909Z,97874.00
2022-11-25T00:57:00.938Z,97872.00
2022-11-25T00:57:10.958Z,97872.00
2022-11-25T00:57:20.952Z,97870.00
2022-11-25T00:57:30.956Z,97872.00
2022-11-25T00:57:41.214Z,97870.00
2022-11-25T00:57:51.224Z,97870.00
2022-11-25T00:58:01.236Z,97870.00
2022-11-25T00:58:11.604Z,97870.00
2022-11-25T00:58:21.617Z,97870.00
2022-11-25T00:58:31.644Z,97872.00
2022-11-25T00:58:41.643Z,97872.00
2022-11-25T00:58:51.648Z,97872.00
2022-11-25T00:59:01.816Z,97870.00
2022-11-25T00:59:11.789Z,97874.00
2022-11-25T00:59:21.794Z,97872.00
2022-11-25T00:59:31.794Z,97874.00
2022-11-25T00:59:41.915Z,97874.00
2022-11-25T00:59:52.060Z,97874.00
2022-11-25T01:00:02.189Z,97872.00
2022-11-25T01:00:12.206Z,97874.00
2022-11-25T01:00:22.460Z,97874.00
2022-11-25T01:00:32.483Z,97874.00
2022-11-25T01:00:42.523Z,97872.00
2022-11-25T01:00:52.540Z,97870.00
2022-11-25T01:01:02.650Z,97872.00
2022-11-25T01:01:12.641Z,97872.00
2022-11-25T01:01:22.755Z,97872.00
2022-11-25T01:01:32.657Z,97872.00
2022-11-25T01:01:42.649Z,97874.00
2022-11-25T01:01:52.685Z,97872.00
2022-11-25T01:02:02.788Z,97872.00
2022-11-25T01:02:13.003Z,97874.00
2022-11-25T01:02:23.171Z,97874.00
2022-11-25T01:02:33.034Z,97872.00
2022-11-25T01:02:43.114Z,97874.00
2022-11-25T01:02:53.119Z,97874.00
2022-11-25T01:03:03.130Z,97874.00
2022-11-25T01:03:13.409Z,97874.00
2022-11-25T01:03:23.542Z,97872.00
2022-11-25T01:03:33.544Z,97872.00
2022-11-25T01:03:43.810Z,97872.00
2022-11-25T01:03:53.827Z,97872.00
2022-11-25T01:04:03.855Z,97872.00
2022-11-25T01:04:13.862Z,97874.00
2022-11-25T01:04:23.867Z,97872.00
2022-11-25T01:04:34.306Z,97872.00
2022-11-25T01:04:43.917Z,97874.00
2022-11-25T01:04:53.923Z,97872.00
2022-11-25T01:05:03.937Z,97870.00
2022-11-25T01:05:13.922Z,97872.00
2022-11-25T01:05:24.315Z,97870.00
2022-11-25T01:05:34.320Z,97870.00
2022-11-25T01:05:44.336Z,97870.00
2022-11-25T01:05:54.342Z,97868.00
2022-11-25T01:06:04.358Z,97868.00
2022-11-25T01:06:14.362Z,97868.00
2022-11-25T01:06:24.370Z,97868.00
2022-11-25T01:06:34.392Z,97868.00
2022-11-25T01:06:44.509Z,97868.00
2022-11-25T01:06:54.506Z,97870.00
2022-11-25T01:07:04.772Z,97870.00
2022-11-25T01:07:14.858Z,97864.00
2022-11-25T01:07:24.910Z,97870.00
2022-11-25T01:07:34.945Z,97868.00
2022-11-25T01:07:45.030Z,97872.00
2022-11-25T01:07:55.083Z,97868.00
2022-11-25T01:08:05.086Z,97872.00
2022-11-25T01:08:15.089Z,97868.00
2022-11-25T01:08:25.105Z,97870.00
2022-11-25T01:08:35.109Z,97872.00
2022-11-25T01:08:45.121Z,97870.00
2022-11-25T01:08:55.128Z,97872.00
2022-11-25T01:09:05.154Z,97868.00
2022-11-25T01:09:15.155Z,97872.00
2022-11-25T01:09:25.290Z,97868.00
2022-11-25T01:09:35.292Z,97870.00
2022-11-25T01:09:45.295Z,97870.00
2022-11-25T01:09:55.550Z,97868.00
2022-11-25T01:10:05.564Z,97868.00
2022-11-25T01:10:15.570Z,97868.00
2022-11-25T01:10:25.654Z,97868.00
2022-11-25T01:10:35.665Z,97864.00
2022-11-25T01:10:45.787Z,97866.00
2022-11-25T01:10:55.807Z,97864.00
2022-11-25T01:11:05.828Z,97866.00
2022-11-25T01:11:15.829Z,97864.00
2022-11-25T01:11:25.842Z,97864.00
2022-11-25T01:11:36.100Z,97866.00
2022-11-25T01:11:46.120Z,97866.00
2022-11-25T01:11:56.123Z,97866.00
2022-11-25T01:12:06.518Z,97866.00
2022-11-25T01:12:16.525Z,97864.00
2022-11-25T01:12:26.538Z,97866.00
2022-11-25T01:12:36.551Z,97866.00
2022-11-25T01:12:46.564Z,97864.00
2022-11-25T01:12:56.573Z,97866.00
2022-11-25T01:13:06.582Z,97868.00
2022-11-25T01:13:16.592Z,97866.00
2022-11-25T01:13:26.729Z,97866.00
2022-11-25T01:13:36.723Z,97866.00
2022-11-25T01:13:46.978Z,97866.00
2022-11-25T01:14:01.203Z,97866.00
2022-11-25T01:14:07.105Z,97862.00
2022-11-25T01:14:17.075Z,97862.00
2022-11-25T01:14:27.086Z,97866.00
2022-11-25T01:14:37.447Z,97862.00
2022-11-25T01:14:47.197Z,97866.00
2022-11-25T01:14:57.199Z,97866.00
2022-11-25T01:15:07.322Z,97864.00
2022-11-25T01:15:17.325Z,97864.00
2022-11-25T01:15:27.462Z,97864.00
2022-11-25T01:15:37.459Z,97864.00
2022-11-25T01:15:47.463Z,97864.00
2022-11-25T01:15:57.480Z,97862.00
2022-11-25T01:16:07.563Z,97864.00
2022-11-25T01:16:17.661Z,97864.00
2022-11-25T01:16:27.782Z,97864.00
2022-11-25T01:16:37.843Z,97862.00
2022-11-25T01:16:47.914Z,97862.00
2022-11-25T01:16:57.915Z,97864.00
2022-11-25T01:17:08.031Z,97862.00
2022-11-25T01:17:18.028Z,97862.00
2022-11-25T01:17:28.034Z,97864.00
2022-11-25T01:17:38.045Z,97862.00
2022-11-25T01:17:48.057Z,97860.00
2022-11-25T01:17:58.065Z,97862.00
2022-11-25T01:18:08.076Z,97860.00
2022-11-25T01:18:18.089Z,97860.00
2022-11-25T01:18:28.220Z,97862.00
2022-11-25T01:18:38.229Z,97858.00
2022-11-25T01:18:48.483Z,97858.00
2022-11-25T01:18:58.493Z,97856.00
2022-11-25T01:19:08.509Z,97858.00
2022-11-25T01:19:18.520Z,97858.00
2022-11-25T01:19:28.534Z,97856.00
2022-11-25T01:19:38.545Z,97856.00
2022-11-25T01:19:48.540Z,97852.00
2022-11-25T01:19:58.565Z,97852.00
2022-11-25T01:20:08.696Z,97854.00
2022-11-25T01:20:18.709Z,97852.00
2022-11-25T01:20:28.963Z,97854.00
2022-11-25T01:20:38.962Z,97852.00
2022-11-25T01:20:49.086Z,97852.00
2022-11-25T01:20:59.352Z,97854.00
2022-11-25T01:21:09.358Z,97852.00
2022-11-25T01:21:19.370Z,97852.00
2022-11-25T01:21:29.379Z,97852.00
2022-11-25T01:21:39.440Z,97852.00
2022-11-25T01:21:49.439Z,97852.00
2022-11-25T01:21:59.452Z,97852.00
2022-11-25T01:22:09.462Z,97854.00
2022-11-25T01:22:19.464Z,97852.00
2022-11-25T01:22:29.584Z,97852.00
2022-11-25T01:22:39.847Z,97852.00
2022-11-25T01:22:49.857Z,97850.00
2022-11-25T01:22:59.868Z,97850.00
2022-11-25T01:23:09.860Z,97850.00
2022-11-25T01:23:19.866Z,97854.00
2022-11-25T01:23:29.998Z,97854.00
2022-11-25T01:23:40.010Z,97854.00
2022-11-25T01:23:50.021Z,97856.00
2022-11-25T01:24:00.028Z,97852.00
2022-11-25T01:24:10.042Z,97852.00
2022-11-25T01:24:20.303Z,97854.00
2022-11-25T01:24:30.310Z,97852.00
2022-11-25T01:24:40.306Z,97852.00
2022-11-25T01:24:50.306Z,97850.00
2022-11-25T01:25:00.353Z,97854.00
2022-11-25T01:25:10.372Z,97854.00
2022-11-25T01:25:20.381Z,97854.00
2022-11-25T01:25:30.396Z,97850.00
2022-11-25T01:25:40.401Z,97850.00
2022-11-25T01:25:50.416Z,97852.00
2022-11-25T01:26:00.421Z,97850.00
2022-11-25T01:26:10.435Z,97852.00
2022-11-25T01:26:20.436Z,97852.00
2022-11-25T01:26:30.440Z,97852.00
2022-11-25T01:26:40.475Z,97852.00
2022-11-25T01:26:50.474Z,97852.00
2022-11-25T01:27:00.477Z,97852.00
2022-11-25T01:27:10.492Z,97852.00
2022-11-25T01:27:20.499Z,97854.00
2022-11-25T01:27:30.510Z,97854.00
2022-11-25T01:27:40.508Z,97852.00
2022-11-25T01:27:50.640Z,97854.00
2022-11-25T01:28:00.643Z,97854.00
2022-11-25T01:28:10.657Z,97852.00
2022-11-25T01:28:20.918Z,97852.00
2022-11-25T01:28:31.037Z,97856.00
2022-11-25T01:28:41.037Z,97856.00
2022-11-25T01:28:51.311Z,97854.00
2022-11-25T01:29:01.315Z,97854.00
2022-11-25T01:29:11.338Z,97856.00
2022-11-25T01:29:21.330Z,97854.00
2022-11-25T01:29:31.325Z,97854.00
2022-11-25T01:29:41.337Z,97852.00
2022-11-25T01:29:51.350Z,97854.00
2022-11-25T01:30:01.364Z,97852.00
2022-11-25T01:30:11.371Z,97850.00
2022-11-25T01:30:21.377Z,97852.00
2022-11-25T01:30:31.393Z,97854.00
2022-11-25T01:30:41.494Z,97854.00
2022-11-25T01:30:51.468Z,97852.00
2022-11-25T01:31:01.469Z,97854.00
2022-11-25T01:31:11.706Z,97852.00
2022-11-25T01:31:21.761Z,97854.00
2022-11-25T01:31:31.862Z,97852.00
2022-11-25T01:31:42.029Z,97854.00
2022-11-25T01:31:51.938Z,97852.00
2022-11-25T01:32:02.009Z,97852.00
2022-11-25T01:32:12.034Z,97854.00
2022-11-25T01:32:22.046Z,97852.00
2022-11-25T01:32:32.168Z,97850.00
2022-11-25T01:32:42.163Z,97854.00
2022-11-25T01:32:52.291Z,97854.00
2022-11-25T01:33:02.295Z,97852.00
2022-11-25T01:33:12.293Z,97852.00
2022-11-25T01:33:22.426Z,97852.00
2022-11-25T01:33:32.466Z,97850.00
2022-11-25T01:33:42.481Z,97852.00
2022-11-25T01:33:52.522Z,97850.00
2022-11-25T01:34:02.533Z,97852.00
2022-11-25T01:34:12.656Z,97854.00
2022-11-25T01:34:22.661Z,97852.00
2022-11-25T01:34:32.748Z,97854.00
2022-11-25T01:34:42.758Z,97850.00
2022-11-25T01:34:52.888Z,97850.00
2022-11-25T01:35:03.024Z,97852.00
2022-11-25T01:35:13.029Z,97850.00
2022-11-25T01:35:23.027Z,97852.00
2022-11-25T01:35:33.401Z,97848.00
2022-11-25T01:35:43.403Z,97848.00
2022-11-25T01:35:53.416Z,97850.00
2022-11-25T01:36:03.422Z,97848.00
2022-11-25T01:36:13.440Z,97850.00
2022-11-25T01:36:23.452Z,97848.00
2022-11-25T01:36:33.452Z,97850.00
2022-11-25T01:36:43.465Z,97850.00
2022-11-25T01:36:53.479Z,97850.00
2022-11-25T01:37:03.491Z,97850.00
2022-11-25T01:37:13.872Z,97852.00
2022-11-25T01:37:23.869Z,97850.00
2022-11-25T01:37:33.989Z,97852.00
2022-11-25T01:37:44.255Z,97852.00
2022-11-25T01:37:54.378Z,97852.00
2022-11-25T01:38:04.382Z,97852.00
2022-11-25T01:38:14.640Z,97852.00
2022-11-25T01:38:24.638Z,97852.00
2022-11-25T01:38:34.643Z,97852.00
2022-11-25T01:38:44.644Z,97852.00
2022-11-25T01:38:54.789Z,97854.00
2022-11-25T01:39:04.786Z,97854.00
2022-11-25T01:39:14.793Z,97856.00
2022-11-25T01:39:30.453Z,97854.00
2022-11-25T01:39:34.807Z,97856.00
2022-11-25T01:39:44.810Z,97856.00
2022-11-25T01:39:54.813Z,97856.00
2022-11-25T01:40:04.825Z,97854.00
2022-11-25T01:40:14.822Z,97856.00
2022-11-25T01:40:24.955Z,97858.00
2022-11-25T01:40:35.109Z,97856.00
2022-11-25T01:40:45.093Z,97862.00
2022-11-25T01:40:55.347Z,97864.00
2022-11-25T01:41:05.359Z,97866.00
2022-11-25T01:41:15.366Z,97866.00
2022-11-25T01:41:25.381Z,97868.00
2022-11-25T01:41:35.387Z,97862.00
2022-11-25T01:41:45.382Z,97870.00
2022-11-25T01:41:55.391Z,97870.00
2022-11-25T01:42:05.516Z,97872.00
2022-11-25T01:42:15.529Z,97872.00
2022-11-25T01:42:25.566Z,97874.00
2022-11-25T01:42:35.828Z,97874.00
2022-11-25T01:42:45.945Z,97874.00
2022-11-25T01:42:55.945Z,97876.00
2022-11-25T01:43:06.196Z,97876.00
2022-11-25T01:43:16.195Z,97874.00
2022-11-25T01:43:26.317Z,97874.00
2022-11-25T01:43:36.573Z,97876.00
2022-11-25T01:43:46.585Z,97874.00
2022-11-25T01:43:56.594Z,97872.00
2022-11-25T01:44:06.604Z,97872.00
2022-11-25T01:44:16.648Z,97870.00
2022-11-25T01:44:26.627Z,97872.00
2022-11-25T01:44:36.854Z,97870.00
2022-11-25T01:44:46.711Z,97868.00
2022-11-25T01:44:56.710Z,97868.00
2022-11-25T01:45:06.715Z,97868.00
2022-11-25T01:45:16.738Z,97870.00
2022-11-25T01:45:28.780Z,97872.00
2022-11-25T01:45:36.879Z,97870.00
2022-11-25T01:45:46.969Z,97868.00
2022-11-25T01:45:56.988Z,97870.00
2022-11-25T01:46:07.056Z,97870.00
2022-11-25T01:46:17.164Z,97868.00
2022-11-25T01:46:27.299Z,97864.00
2022-11-25T01:46:37.314Z,97868.00
2022-11-25T01:46:47.310Z,97862.00
2022-11-25T01:46:57.314Z,97870.00
2022-11-25T01:47:07.332Z,97870.00
2022-11-25T01:47:17.351Z,97868.00
2022-11-25T01:47:27.359Z,97870.00
2022-11-25T01:47:37.365Z,97872.00
2022-11-25T01:47:47.481Z,97872.00
2022-11-25T01:47:57.484Z,97870.00
2022-11-25T01:48:07.756Z,97872.00
2022-11-25T01:48:17.764Z,97874.00
2022-11-25T01:48:27.797Z,97872.00
2022-11-25T01:48:37.813Z,97872.00
2022-11-25T01:48:47.821Z,97872.00
2022-11-25T01:48:57.830Z,97872.00
2022-11-25T01:49:07.849Z,97870.00
2022-11-25T01:49:17.856Z,97870.00
2022-11-25T01:49:27.861Z,97868.00
2022-11-25T01:49:37.877Z,97870.00
2022-11-25T01:49:47.881Z,97870.00
2022-11-25T01:49:57.895Z,97870.00
2022-11-25T01:50:07.901Z,97868.00
2022-11-25T01:50:17.911Z,97868.00
2022-11-25T01:50:27.923Z,97868.00
2022-11-25T01:50:37.939Z,97868.00
2022-11-25T01:50:47.944Z,97870.00
2022-11-25T01:50:57.959Z,97868.00
2022-11-25T01:51:08.085Z,97868.00
2022-11-25T01:51:18.088Z,97868.00
2022-11-25T01:51:28.097Z,97868.00
2022-11-25T01:51:38.103Z,97868.00
2022-11-25T01:51:48.106Z,97870.00
2022-11-25T01:51:58.116Z,97868.00
2022-11-25T01:52:08.382Z,97868.00
2022-11-25T01:52:18.401Z,97870.00
2022-11-25T01:52:28.419Z,97868.00
2022-11-25T01:52:38.421Z,97870.00
2022-11-25T01:52:48.442Z,97870.00
2022-11-25T01:52:58.442Z,97870.00
2022-11-25T01:53:08.463Z,97870.00
2022-11-25T01:53:18.482Z,97868.00
2022-11-25T01:53:28.470Z,97868.00
2022-11-25T01:53:38.473Z,97868.00
2022-11-25T01:53:48.478Z,97868.00
2022-11-25T01:53:58.483Z,97870.00
2022-11-25T01:54:08.612Z,97870.00
2022-11-25T01:54:18.616Z,97870.00
2022-11-25T01:54:28.757Z,97870.00
2022-11-25T01:54:38.773Z,97870.00
2022-11-25T01:54:48.798Z,97872.00
2022-11-25T01:54:58.926Z,97872.00
2022-11-25T01:55:09.053Z,97872.00
2022-11-25T01:55:19.057Z,97872.00
2022-11-25T01:55:29.311Z,97870.00
2022-11-25T01:55:39.310Z,97870.00
2022-11-25T01:55:49.320Z,97872.00
2022-11-25T01:55:59.324Z,97870.00
2022-11-25T01:56:09.343Z,97870.00
2022-11-25T01:56:19.344Z,97870.00
2022-11-25T01:56:29.362Z,97868.00
2022-11-25T01:56:39.365Z,97868.00
2022-11-25T01:56:49.372Z,97868.00
2022-11-25T01:56:59.377Z,97868.00
2022-11-25T01:57:09.400Z,97866.00
2022-11-25T01:57:19.405Z,97868.00
2022-11-25T01:57:29.416Z,97868.00
2022-11-25T01:57:39.424Z,97868.00
2022-11-25T01:57:49.435Z,97868.00
2022-11-25T01:57:59.438Z,97866.00